Terminal Aerodrome Forecast
Issued by NWS Newport/Morehead City, NC

Home | Current Version | Previous Version | Graphics & Text | Print | Product List | Glossary On
Versions: 1 2 3 4 5 6 7 8 9 10 11 12 13 14 15 16 17
000
FTUS42 KMHX 150534
TAFEWN
TAF
KEWN 150534Z 1506/1606 36008KT P6SM BKN030
     FM150900 35008KT P6SM SCT015 BKN035
     FM151600 34008KT P6SM SCT090=

USA.gov is the U.S. government's official web portal to all federal, state and local government web resources and services.